sensor_id;sensor_type;location;lat;lon;timestamp;P1;durP1;ratioP1;P2;durP2;ratioP2
55539;SDS011;41384;51.418;7.286;2023-05-10T00:00:20;2.17;;;1.48;;
55539;SDS011;41384;51.418;7.286;2023-05-10T00:02:47;2.10;;;1.60;;
55539;SDS011;41384;51.418;7.286;2023-05-10T00:05:13;2.40;;;1.63;;
55539;SDS011;41384;51.418;7.286;2023-05-10T00:07:38;2.28;;;1.52;;
55539;SDS011;41384;51.418;7.286;2023-05-10T00:10:03;2.35;;;1.70;;
55539;SDS011;41384;51.418;7.286;2023-05-10T00:12:29;2.20;;;1.50;;
55539;SDS011;41384;51.418;7.286;2023-05-10T00:14:54;2.25;;;1.90;;
55539;SDS011;41384;51.418;7.286;2023-05-10T00:17:20;2.63;;;1.73;;
55539;SDS011;41384;51.418;7.286;2023-05-10T00:19:45;2.60;;;1.70;;
55539;SDS011;41384;51.418;7.286;2023-05-10T00:22:10;1.90;;;1.52;;
55539;SDS011;41384;51.418;7.286;2023-05-10T00:24:35;2.85;;;1.42;;
55539;SDS011;41384;51.418;7.286;2023-05-10T00:27:01;2.28;;;1.20;;
55539;SDS011;41384;51.418;7.286;2023-05-10T00:29:26;1.77;;;1.13;;
55539;SDS011;41384;51.418;7.286;2023-05-10T00:31:52;1.58;;;1.35;;
55539;SDS011;41384;51.418;7.286;2023-05-10T00:34:18;1.55;;;1.20;;
55539;SDS011;41384;51.418;7.286;2023-05-10T00:36:43;1.80;;;1.30;;
55539;SDS011;41384;51.418;7.286;2023-05-10T00:39:08;3.08;;;1.85;;
55539;SDS011;41384;51.418;7.286;2023-05-10T00:41:34;2.60;;;1.92;;
55539;SDS011;41384;51.418;7.286;2023-05-10T00:43:59;4.75;;;2.58;;
55539;SDS011;41384;51.418;7.286;2023-05-10T00:46:25;3.50;;;2.45;;
55539;SDS011;41384;51.418;7.286;2023-05-10T00:48:51;5.55;;;3.25;;
55539;SDS011;41384;51.418;7.286;2023-05-10T00:51:16;4.97;;;2.85;;
55539;SDS011;41384;51.418;7.286;2023-05-10T00:53:42;4.95;;;3.28;;
55539;SDS011;41384;51.418;7.286;2023-05-10T00:56:10;5.75;;;3.60;;
55539;SDS011;41384;51.418;7.286;2023-05-10T00:58:35;6.00;;;3.55;;
55539;SDS011;41384;51.418;7.286;2023-05-10T01:01:01;6.05;;;3.55;;
55539;SDS011;41384;51.418;7.286;2023-05-10T01:03:26;5.35;;;3.50;;
55539;SDS011;41384;51.418;7.286;2023-05-10T01:05:52;5.18;;;3.53;;
55539;SDS011;41384;51.418;7.286;2023-05-10T01:08:18;6.22;;;3.88;;
55539;SDS011;41384;51.418;7.286;2023-05-10T01:10:44;7.07;;;4.15;;
55539;SDS011;41384;51.418;7.286;2023-05-10T01:13:10;6.30;;;4.47;;
55539;SDS011;41384;51.418;7.286;2023-05-10T01:15:37;8.02;;;4.35;;
55539;SDS011;41384;51.418;7.286;2023-05-10T01:18:03;7.97;;;4.78;;
55539;SDS011;41384;51.418;7.286;2023-05-10T01:20:31;6.97;;;4.68;;
55539;SDS011;41384;51.418;7.286;2023-05-10T01:23:05;8.67;;;4.63;;
55539;SDS011;41384;51.418;7.286;2023-05-10T01:33:57;6.80;;;4.22;;
55539;SDS011;41384;51.418;7.286;2023-05-10T01:36:30;8.15;;;4.40;;
55539;SDS011;41384;51.418;7.286;2023-05-10T01:47:07;7.15;;;4.97;;
55539;SDS011;41384;51.418;7.286;2023-05-10T01:49:52;6.85;;;4.50;;
55539;SDS011;41384;51.418;7.286;2023-05-10T01:52:19;6.80;;;4.57;;
55539;SDS011;41384;51.418;7.286;2023-05-10T01:54:55;6.25;;;4.68;;
55539;SDS011;41384;51.418;7.286;2023-05-10T01:57:27;6.57;;;4.03;;
55539;SDS011;41384;51.418;7.286;2023-05-10T02:00:04;6.68;;;4.22;;
55539;SDS011;41384;51.418;7.286;2023-05-10T02:02:33;5.78;;;3.85;;
55539;SDS011;41384;51.418;7.286;2023-05-10T02:05:02;5.93;;;4.07;;
55539;SDS011;41384;51.418;7.286;2023-05-10T02:07:30;5.03;;;3.25;;
55539;SDS011;41384;51.418;7.286;2023-05-10T02:09:57;4.75;;;3.40;;
55539;SDS011;41384;51.418;7.286;2023-05-10T02:12:23;6.40;;;3.83;;
55539;SDS011;41384;51.418;7.286;2023-05-10T02:14:50;6.05;;;3.50;;
55539;SDS011;41384;51.418;7.286;2023-05-10T02:17:18;5.20;;;3.88;;
55539;SDS011;41384;51.418;7.286;2023-05-10T02:19:45;4.97;;;3.53;;
55539;SDS011;41384;51.418;7.286;2023-05-10T02:22:12;5.93;;;4.13;;
55539;SDS011;41384;51.418;7.286;2023-05-10T02:24:39;6.53;;;4.20;;
55539;SDS011;41384;51.418;7.286;2023-05-10T02:27:06;5.30;;;4.13;;
55539;SDS011;41384;51.418;7.286;2023-05-10T02:29:33;5.22;;;3.90;;
55539;SDS011;41384;51.418;7.286;2023-05-10T02:32:00;5.65;;;3.95;;
55539;SDS011;41384;51.418;7.286;2023-05-10T02:34:27;5.63;;;3.58;;
55539;SDS011;41384;51.418;7.286;2023-05-10T02:36:53;5.47;;;3.28;;
55539;SDS011;41384;51.418;7.286;2023-05-10T02:39:20;4.88;;;3.75;;
55539;SDS011;41384;51.418;7.286;2023-05-10T02:41:46;5.05;;;3.67;;
55539;SDS011;41384;51.418;7.286;2023-05-10T02:44:17;6.65;;;3.92;;
55539;SDS011;41384;51.418;7.286;2023-05-10T02:46:44;7.18;;;4.07;;
55539;SDS011;41384;51.418;7.286;2023-05-10T02:49:10;6.65;;;4.03;;
55539;SDS011;41384;51.418;7.286;2023-05-10T02:51:37;6.05;;;3.95;;
55539;SDS011;41384;51.418;7.286;2023-05-10T02:54:10;6.50;;;4.18;;
55539;SDS011;41384;51.418;7.286;2023-05-10T02:56:39;7.82;;;4.72;;
55539;SDS011;41384;51.418;7.286;2023-05-10T02:59:07;7.47;;;4.68;;
55539;SDS011;41384;51.418;7.286;2023-05-10T03:01:33;7.55;;;4.35;;
55539;SDS011;41384;51.418;7.286;2023-05-10T03:03:58;7.20;;;4.60;;
55539;SDS011;41384;51.418;7.286;2023-05-10T03:06:24;7.85;;;5.05;;
55539;SDS011;41384;51.418;7.286;2023-05-10T03:08:49;8.50;;;4.82;;
55539;SDS011;41384;51.418;7.286;2023-05-10T03:11:28;9.80;;;6.03;;
55539;SDS011;41384;51.418;7.286;2023-05-10T03:14:10;13.63;;;6.30;;
55539;SDS011;41384;51.418;7.286;2023-05-10T03:16:46;8.85;;;5.63;;
55539;SDS011;41384;51.418;7.286;2023-05-10T03:19:17;10.90;;;6.45;;
55539;SDS011;41384;51.418;7.286;2023-05-10T03:21:51;9.93;;;6.10;;
55539;SDS011;41384;51.418;7.286;2023-05-10T03:24:20;10.18;;;6.20;;
55539;SDS011;41384;51.418;7.286;2023-05-10T03:26:46;11.60;;;6.97;;
55539;SDS011;41384;51.418;7.286;2023-05-10T03:29:12;11.73;;;6.22;;
55539;SDS011;41384;51.418;7.286;2023-05-10T03:31:39;13.02;;;6.28;;
55539;SDS011;41384;51.418;7.286;2023-05-10T03:34:04;10.70;;;6.65;;
55539;SDS011;41384;51.418;7.286;2023-05-10T03:36:31;13.52;;;6.53;;
55539;SDS011;41384;51.418;7.286;2023-05-10T03:38:56;13.93;;;7.15;;
55539;SDS011;41384;51.418;7.286;2023-05-10T03:41:21;12.60;;;7.38;;
55539;SDS011;41384;51.418;7.286;2023-05-10T03:43:47;14.45;;;7.63;;
55539;SDS011;41384;51.418;7.286;2023-05-10T03:46:12;13.65;;;7.70;;
55539;SDS011;41384;51.418;7.286;2023-05-10T03:48:37;11.57;;;7.57;;
55539;SDS011;41384;51.418;7.286;2023-05-10T03:51:02;14.48;;;7.80;;
55539;SDS011;41384;51.418;7.286;2023-05-10T03:53:28;15.07;;;7.85;;
55539;SDS011;41384;51.418;7.286;2023-05-10T03:55:53;12.43;;;7.75;;
55539;SDS011;41384;51.418;7.286;2023-05-10T03:58:18;12.38;;;7.78;;
55539;SDS011;41384;51.418;7.286;2023-05-10T04:00:44;15.50;;;8.48;;
55539;SDS011;41384;51.418;7.286;2023-05-10T04:03:10;13.52;;;8.25;;
55539;SDS011;41384;51.418;7.286;2023-05-10T04:05:36;14.98;;;8.38;;
55539;SDS011;41384;51.418;7.286;2023-05-10T04:08:02;16.02;;;8.82;;
55539;SDS011;41384;51.418;7.286;2023-05-10T04:10:27;15.20;;;8.23;;
55539;SDS011;41384;51.418;7.286;2023-05-10T04:12:53;14.32;;;9.25;;
55539;SDS011;41384;51.418;7.286;2023-05-10T04:15:18;17.38;;;9.13;;
55539;SDS011;41384;51.418;7.286;2023-05-10T04:17:43;15.05;;;9.25;;
55539;SDS011;41384;51.418;7.286;2023-05-10T04:20:09;16.17;;;9.13;;
55539;SDS011;41384;51.418;7.286;2023-05-10T04:22:35;17.40;;;8.95;;
55539;SDS011;41384;51.418;7.286;2023-05-10T04:25:00;14.85;;;8.75;;
55539;SDS011;41384;51.418;7.286;2023-05-10T04:27:25;14.10;;;8.18;;
55539;SDS011;41384;51.418;7.286;2023-05-10T04:29:51;14.35;;;8.40;;
55539;SDS011;41384;51.418;7.286;2023-05-10T04:32:16;17.58;;;8.85;;
55539;SDS011;41384;51.418;7.286;2023-05-10T04:34:42;14.63;;;8.70;;
55539;SDS011;41384;51.418;7.286;2023-05-10T04:37:08;16.98;;;9.15;;
55539;SDS011;41384;51.418;7.286;2023-05-10T04:39:33;14.48;;;9.27;;
55539;SDS011;41384;51.418;7.286;2023-05-10T04:42:00;18.90;;;9.35;;
55539;SDS011;41384;51.418;7.286;2023-05-10T04:44:25;18.27;;;9.60;;
55539;SDS011;41384;51.418;7.286;2023-05-10T04:46:51;14.93;;;9.48;;
55539;SDS011;41384;51.418;7.286;2023-05-10T04:49:16;16.08;;;9.98;;
55539;SDS011;41384;51.418;7.286;2023-05-10T04:51:41;16.70;;;10.10;;
55539;SDS011;41384;51.418;7.286;2023-05-10T04:54:06;19.15;;;10.48;;
55539;SDS011;41384;51.418;7.286;2023-05-10T04:56:32;21.50;;;11.07;;
55539;SDS011;41384;51.418;7.286;2023-05-10T04:58:57;21.58;;;11.77;;
55539;SDS011;41384;51.418;7.286;2023-05-10T05:01:23;20.73;;;11.02;;
55539;SDS011;41384;51.418;7.286;2023-05-10T05:03:48;23.55;;;12.55;;
55539;SDS011;41384;51.418;7.286;2023-05-10T05:06:13;24.58;;;12.38;;
55539;SDS011;41384;51.418;7.286;2023-05-10T05:08:38;24.48;;;13.40;;
55539;SDS011;41384;51.418;7.286;2023-05-10T05:11:04;24.48;;;13.68;;
55539;SDS011;41384;51.418;7.286;2023-05-10T05:13:29;25.50;;;13.15;;
55539;SDS011;41384;51.418;7.286;2023-05-10T05:15:54;25.98;;;14.05;;
55539;SDS011;41384;51.418;7.286;2023-05-10T05:18:20;27.25;;;14.32;;
55539;SDS011;41384;51.418;7.286;2023-05-10T05:20:45;22.88;;;12.90;;
55539;SDS011;41384;51.418;7.286;2023-05-10T05:23:11;23.20;;;13.00;;
55539;SDS011;41384;51.418;7.286;2023-05-10T05:25:36;28.55;;;13.13;;
55539;SDS011;41384;51.418;7.286;2023-05-10T05:28:01;26.80;;;14.13;;
55539;SDS011;41384;51.418;7.286;2023-05-10T05:30:27;28.40;;;14.52;;
55539;SDS011;41384;51.418;7.286;2023-05-10T05:32:52;25.95;;;14.80;;
55539;SDS011;41384;51.418;7.286;2023-05-10T05:35:17;24.80;;;13.68;;
55539;SDS011;41384;51.418;7.286;2023-05-10T05:37:43;22.83;;;13.55;;
55539;SDS011;41384;51.418;7.286;2023-05-10T05:40:11;26.60;;;13.88;;
55539;SDS011;41384;51.418;7.286;2023-05-10T05:42:37;27.77;;;13.90;;
55539;SDS011;41384;51.418;7.286;2023-05-10T05:45:03;26.23;;;13.95;;
55539;SDS011;41384;51.418;7.286;2023-05-10T05:47:29;28.70;;;14.65;;
55539;SDS011;41384;51.418;7.286;2023-05-10T05:49:54;29.77;;;15.43;;
55539;SDS011;41384;51.418;7.286;2023-05-10T05:52:20;31.33;;;15.13;;
55539;SDS011;41384;51.418;7.286;2023-05-10T05:54:46;31.92;;;15.30;;
55539;SDS011;41384;51.418;7.286;2023-05-10T05:57:11;27.00;;;14.73;;
55539;SDS011;41384;51.418;7.286;2023-05-10T05:59:36;30.05;;;15.80;;
55539;SDS011;41384;51.418;7.286;2023-05-10T06:02:06;28.15;;;15.27;;
55539;SDS011;41384;51.418;7.286;2023-05-10T06:04:32;28.20;;;15.38;;
55539;SDS011;41384;51.418;7.286;2023-05-10T06:06:57;30.33;;;16.33;;
55539;SDS011;41384;51.418;7.286;2023-05-10T06:09:22;29.75;;;16.42;;
55539;SDS011;41384;51.418;7.286;2023-05-10T06:11:49;34.03;;;18.42;;
55539;SDS011;41384;51.418;7.286;2023-05-10T06:14:19;36.38;;;17.98;;
55539;SDS011;41384;51.418;7.286;2023-05-10T06:16:45;29.42;;;15.88;;
55539;SDS011;41384;51.418;7.286;2023-05-10T06:19:10;30.52;;;16.33;;
55539;SDS011;41384;51.418;7.286;2023-05-10T06:21:36;33.47;;;16.55;;
55539;SDS011;41384;51.418;7.286;2023-05-10T06:24:01;35.35;;;17.58;;
55539;SDS011;41384;51.418;7.286;2023-05-10T06:26:27;30.45;;;15.70;;
55539;SDS011;41384;51.418;7.286;2023-05-10T06:28:52;29.85;;;15.68;;
55539;SDS011;41384;51.418;7.286;2023-05-10T06:31:18;28.55;;;15.90;;
55539;SDS011;41384;51.418;7.286;2023-05-10T06:33:43;30.33;;;16.80;;
55539;SDS011;41384;51.418;7.286;2023-05-10T06:36:08;30.55;;;15.57;;
55539;SDS011;41384;51.418;7.286;2023-05-10T06:38:34;31.50;;;14.52;;
55539;SDS011;41384;51.418;7.286;2023-05-10T06:40:59;28.58;;;13.82;;
55539;SDS011;41384;51.418;7.286;2023-05-10T06:43:24;30.45;;;15.77;;
55539;SDS011;41384;51.418;7.286;2023-05-10T06:45:51;31.55;;;15.65;;
55539;SDS011;41384;51.418;7.286;2023-05-10T06:48:16;32.38;;;15.77;;
55539;SDS011;41384;51.418;7.286;2023-05-10T06:50:42;28.85;;;14.93;;
55539;SDS011;41384;51.418;7.286;2023-05-10T06:53:07;29.02;;;14.93;;
55539;SDS011;41384;51.418;7.286;2023-05-10T06:55:32;28.58;;;14.88;;
55539;SDS011;41384;51.418;7.286;2023-05-10T06:57:57;28.52;;;14.18;;
55539;SDS011;41384;51.418;7.286;2023-05-10T07:00:23;30.13;;;16.80;;
55539;SDS011;41384;51.418;7.286;2023-05-10T07:02:48;27.10;;;14.88;;
55539;SDS011;41384;51.418;7.286;2023-05-10T07:05:13;30.13;;;14.98;;
55539;SDS011;41384;51.418;7.286;2023-05-10T07:07:39;32.17;;;15.50;;
55539;SDS011;41384;51.418;7.286;2023-05-10T07:10:04;27.15;;;14.82;;
55539;SDS011;41384;51.418;7.286;2023-05-10T07:12:30;25.00;;;15.15;;
55539;SDS011;41384;51.418;7.286;2023-05-10T07:14:56;31.65;;;16.95;;
55539;SDS011;41384;51.418;7.286;2023-05-10T07:17:21;27.15;;;14.85;;
55539;SDS011;41384;51.418;7.286;2023-05-10T07:19:47;26.70;;;15.32;;
55539;SDS011;41384;51.418;7.286;2023-05-10T07:22:12;29.02;;;14.45;;
55539;SDS011;41384;51.418;7.286;2023-05-10T07:24:37;27.33;;;15.45;;
55539;SDS011;41384;51.418;7.286;2023-05-10T07:27:03;30.00;;;16.27;;
55539;SDS011;41384;51.418;7.286;2023-05-10T07:29:29;29.48;;;16.40;;
55539;SDS011;41384;51.418;7.286;2023-05-10T07:31:54;32.58;;;18.58;;
55539;SDS011;41384;51.418;7.286;2023-05-10T07:34:19;34.90;;;17.40;;
55539;SDS011;41384;51.418;7.286;2023-05-10T07:36:45;35.28;;;18.38;;
55539;SDS011;41384;51.418;7.286;2023-05-10T07:39:10;39.05;;;20.27;;
55539;SDS011;41384;51.418;7.286;2023-05-10T07:41:36;33.85;;;18.80;;
55539;SDS011;41384;51.418;7.286;2023-05-10T07:44:02;38.80;;;19.67;;
55539;SDS011;41384;51.418;7.286;2023-05-10T07:46:28;45.83;;;20.55;;
55539;SDS011;41384;51.418;7.286;2023-05-10T07:48:53;35.15;;;18.23;;
55539;SDS011;41384;51.418;7.286;2023-05-10T07:51:19;36.40;;;17.70;;
55539;SDS011;41384;51.418;7.286;2023-05-10T07:53:44;34.40;;;16.45;;
55539;SDS011;41384;51.418;7.286;2023-05-10T07:56:29;27.30;;;14.18;;
55539;SDS011;41384;51.418;7.286;2023-05-10T07:58:56;30.17;;;15.88;;
55539;SDS011;41384;51.418;7.286;2023-05-10T08:01:22;28.98;;;12.90;;
55539;SDS011;41384;51.418;7.286;2023-05-10T08:03:48;22.52;;;11.82;;
55539;SDS011;41384;51.418;7.286;2023-05-10T08:06:16;23.50;;;10.73;;
55539;SDS011;41384;51.418;7.286;2023-05-10T08:08:42;18.60;;;10.85;;
55539;SDS011;41384;51.418;7.286;2023-05-10T08:11:07;20.60;;;10.75;;
55539;SDS011;41384;51.418;7.286;2023-05-10T08:13:33;19.17;;;9.85;;
55539;SDS011;41384;51.418;7.286;2023-05-10T08:15:58;19.10;;;10.27;;
55539;SDS011;41384;51.418;7.286;2023-05-10T08:18:24;19.40;;;9.75;;
55539;SDS011;41384;51.418;7.286;2023-05-10T08:20:49;19.80;;;10.18;;
55539;SDS011;41384;51.418;7.286;2023-05-10T08:23:15;25.55;;;10.95;;
55539;SDS011;41384;51.418;7.286;2023-05-10T08:25:40;19.70;;;10.65;;
55539;SDS011;41384;51.418;7.286;2023-05-10T08:28:05;22.13;;;11.50;;
55539;SDS011;41384;51.418;7.286;2023-05-10T08:30:31;20.67;;;10.65;;
55539;SDS011;41384;51.418;7.286;2023-05-10T08:32:56;21.25;;;11.52;;
55539;SDS011;41384;51.418;7.286;2023-05-10T08:35:21;22.20;;;10.48;;
55539;SDS011;41384;51.418;7.286;2023-05-10T08:37:47;19.73;;;10.02;;
55539;SDS011;41384;51.418;7.286;2023-05-10T08:40:12;20.05;;;10.38;;
55539;SDS011;41384;51.418;7.286;2023-05-10T08:42:39;20.38;;;10.65;;
55539;SDS011;41384;51.418;7.286;2023-05-10T08:45:10;19.38;;;10.05;;
55539;SDS011;41384;51.418;7.286;2023-05-10T08:47:36;18.83;;;10.57;;
55539;SDS011;41384;51.418;7.286;2023-05-10T08:50:03;17.95;;;10.02;;
55539;SDS011;41384;51.418;7.286;2023-05-10T08:52:28;16.80;;;9.10;;
55539;SDS011;41384;51.418;7.286;2023-05-10T08:54:55;20.10;;;10.23;;
55539;SDS011;41384;51.418;7.286;2023-05-10T08:57:21;20.30;;;10.43;;
55539;SDS011;41384;51.418;7.286;2023-05-10T08:59:47;20.73;;;10.57;;
55539;SDS011;41384;51.418;7.286;2023-05-10T09:02:12;17.17;;;9.07;;
55539;SDS011;41384;51.418;7.286;2023-05-10T09:04:38;17.98;;;8.77;;
55539;SDS011;41384;51.418;7.286;2023-05-10T09:07:04;22.50;;;9.73;;
55539;SDS011;41384;51.418;7.286;2023-05-10T09:09:29;15.60;;;9.25;;
55539;SDS011;41384;51.418;7.286;2023-05-10T09:11:55;13.23;;;6.47;;
55539;SDS011;41384;51.418;7.286;2023-05-10T09:14:21;11.68;;;6.53;;
55539;SDS011;41384;51.418;7.286;2023-05-10T09:16:48;11.02;;;6.72;;
55539;SDS011;41384;51.418;7.286;2023-05-10T09:19:14;10.90;;;6.90;;
55539;SDS011;41384;51.418;7.286;2023-05-10T09:21:39;10.65;;;5.72;;
55539;SDS011;41384;51.418;7.286;2023-05-10T09:24:05;9.15;;;5.18;;
55539;SDS011;41384;51.418;7.286;2023-05-10T09:26:32;13.63;;;5.90;;
55539;SDS011;41384;51.418;7.286;2023-05-10T09:28:58;11.52;;;6.45;;
55539;SDS011;41384;51.418;7.286;2023-05-10T09:31:25;13.80;;;6.60;;
55539;SDS011;41384;51.418;7.286;2023-05-10T09:34:08;13.07;;;7.03;;
55539;SDS011;41384;51.418;7.286;2023-05-10T09:36:34;10.15;;;6.05;;
55539;SDS011;41384;51.418;7.286;2023-05-10T09:38:59;11.77;;;6.20;;
55539;SDS011;41384;51.418;7.286;2023-05-10T09:41:25;12.07;;;6.50;;
55539;SDS011;41384;51.418;7.286;2023-05-10T09:43:50;11.68;;;5.90;;
55539;SDS011;41384;51.418;7.286;2023-05-10T09:46:21;11.30;;;6.35;;
55539;SDS011;41384;51.418;7.286;2023-05-10T09:48:47;11.23;;;6.13;;
55539;SDS011;41384;51.418;7.286;2023-05-10T09:51:20;18.90;;;7.22;;
55539;SDS011;41384;51.418;7.286;2023-05-10T09:54:08;10.05;;;6.72;;
55539;SDS011;41384;51.418;7.286;2023-05-10T09:56:37;13.13;;;7.00;;
55539;SDS011;41384;51.418;7.286;2023-05-10T09:59:04;12.27;;;7.28;;
55539;SDS011;41384;51.418;7.286;2023-05-10T10:01:30;13.38;;;6.28;;
55539;SDS011;41384;51.418;7.286;2023-05-10T10:03:55;13.35;;;7.32;;
55539;SDS011;41384;51.418;7.286;2023-05-10T10:06:22;15.43;;;7.60;;
55539;SDS011;41384;51.418;7.286;2023-05-10T10:08:48;15.98;;;8.00;;
55539;SDS011;41384;51.418;7.286;2023-05-10T10:11:13;15.25;;;8.07;;
55539;SDS011;41384;51.418;7.286;2023-05-10T10:13:40;18.25;;;8.40;;
55539;SDS011;41384;51.418;7.286;2023-05-10T10:16:06;17.83;;;8.80;;
55539;SDS011;41384;51.418;7.286;2023-05-10T10:18:33;17.20;;;8.10;;
55539;SDS011;41384;51.418;7.286;2023-05-10T10:21:03;14.55;;;7.47;;
55539;SDS011;41384;51.418;7.286;2023-05-10T10:23:30;17.40;;;8.23;;
55539;SDS011;41384;51.418;7.286;2023-05-10T10:25:56;19.92;;;9.55;;
55539;SDS011;41384;51.418;7.286;2023-05-10T10:30:59;22.88;;;12.68;;
55539;SDS011;41384;51.418;7.286;2023-05-10T10:36:21;30.08;;;14.32;;
55539;SDS011;41384;51.418;7.286;2023-05-10T10:47:35;19.45;;;10.50;;
55539;SDS011;41384;51.418;7.286;2023-05-10T10:57:53;19.63;;;10.23;;
55539;SDS011;41384;51.418;7.286;2023-05-10T11:03:05;18.80;;;9.48;;
55539;SDS011;41384;51.418;7.286;2023-05-10T11:05:38;16.83;;;8.90;;
55539;SDS011;41384;51.418;7.286;2023-05-10T11:08:13;18.13;;;8.65;;
55539;SDS011;41384;51.418;7.286;2023-05-10T11:16:11;12.70;;;7.07;;
55539;SDS011;41384;51.418;7.286;2023-05-10T11:18:38;15.00;;;7.78;;
55539;SDS011;41384;51.418;7.286;2023-05-10T11:21:04;19.05;;;7.68;;
55539;SDS011;41384;51.418;7.286;2023-05-10T11:26:08;11.73;;;7.60;;
55539;SDS011;41384;51.418;7.286;2023-05-10T11:28:41;15.95;;;7.88;;
55539;SDS011;41384;51.418;7.286;2023-05-10T11:31:18;14.65;;;8.32;;
55539;SDS011;41384;51.418;7.286;2023-05-10T11:33:48;17.20;;;9.07;;
55539;SDS011;41384;51.418;7.286;2023-05-10T11:36:16;17.83;;;10.13;;
55539;SDS011;41384;51.418;7.286;2023-05-10T11:38:43;14.65;;;8.65;;
55539;SDS011;41384;51.418;7.286;2023-05-10T11:41:09;16.52;;;10.02;;
55539;SDS011;41384;51.418;7.286;2023-05-10T11:43:40;20.65;;;11.98;;
55539;SDS011;41384;51.418;7.286;2023-05-10T11:46:10;21.20;;;12.35;;
55539;SDS011;41384;51.418;7.286;2023-05-10T11:48:38;20.50;;;12.20;;
55539;SDS011;41384;51.418;7.286;2023-05-10T11:51:04;21.17;;;12.52;;
55539;SDS011;41384;51.418;7.286;2023-05-10T11:53:30;17.50;;;10.07;;
55539;SDS011;41384;51.418;7.286;2023-05-10T11:56:15;14.07;;;8.88;;
55539;SDS011;41384;51.418;7.286;2023-05-10T11:58:40;17.65;;;9.13;;
55539;SDS011;41384;51.418;7.286;2023-05-10T12:01:06;14.77;;;9.05;;
55539;SDS011;41384;51.418;7.286;2023-05-10T12:03:32;14.38;;;8.88;;
55539;SDS011;41384;51.418;7.286;2023-05-10T12:05:58;16.08;;;9.40;;
55539;SDS011;41384;51.418;7.286;2023-05-10T12:08:25;22.55;;;9.85;;
55539;SDS011;41384;51.418;7.286;2023-05-10T12:10:52;16.95;;;9.93;;
55539;SDS011;41384;51.418;7.286;2023-05-10T12:13:19;17.67;;;10.25;;
55539;SDS011;41384;51.418;7.286;2023-05-10T12:15:45;15.75;;;10.13;;
55539;SDS011;41384;51.418;7.286;2023-05-10T12:18:11;16.00;;;9.82;;
55539;SDS011;41384;51.418;7.286;2023-05-10T12:20:40;17.20;;;9.52;;
55539;SDS011;41384;51.418;7.286;2023-05-10T12:23:07;13.98;;;9.82;;
55539;SDS011;41384;51.418;7.286;2023-05-10T12:25:34;18.98;;;9.68;;
55539;SDS011;41384;51.418;7.286;2023-05-10T12:28:03;18.08;;;11.20;;
55539;SDS011;41384;51.418;7.286;2023-05-10T12:30:30;14.88;;;10.40;;
55539;SDS011;41384;51.418;7.286;2023-05-10T12:33:00;18.35;;;10.60;;
55539;SDS011;41384;51.418;7.286;2023-05-10T12:35:49;15.20;;;10.23;;
55539;SDS011;41384;51.418;7.286;2023-05-10T12:38:49;13.77;;;9.73;;
55539;SDS011;41384;51.418;7.286;2023-05-10T12:41:10;15.32;;;9.25;;
55539;SDS011;41384;51.418;7.286;2023-05-10T12:43:36;10.90;;;7.85;;
55539;SDS011;41384;51.418;7.286;2023-05-10T12:46:16;12.45;;;8.35;;
55539;SDS011;41384;51.418;7.286;2023-05-10T12:48:42;11.82;;;7.63;;
55539;SDS011;41384;51.418;7.286;2023-05-10T12:51:11;13.52;;;7.93;;
55539;SDS011;41384;51.418;7.286;2023-05-10T12:53:41;10.30;;;7.75;;
55539;SDS011;41384;51.418;7.286;2023-05-10T12:56:06;11.93;;;8.30;;
55539;SDS011;41384;51.418;7.286;2023-05-10T12:58:31;22.70;;;8.88;;
55539;SDS011;41384;51.418;7.286;2023-05-10T13:00:57;19.15;;;11.70;;
55539;SDS011;41384;51.418;7.286;2023-05-10T13:03:23;13.70;;;9.63;;
55539;SDS011;41384;51.418;7.286;2023-05-10T13:05:49;31.27;;;15.77;;
55539;SDS011;41384;51.418;7.286;2023-05-10T13:08:14;19.42;;;12.18;;
55539;SDS011;41384;51.418;7.286;2023-05-10T13:10:40;15.05;;;9.48;;
55539;SDS011;41384;51.418;7.286;2023-05-10T13:13:05;20.17;;;11.68;;
55539;SDS011;41384;51.418;7.286;2023-05-10T13:15:31;15.82;;;10.48;;
55539;SDS011;41384;51.418;7.286;2023-05-10T13:17:56;12.20;;;8.55;;
55539;SDS011;41384;51.418;7.286;2023-05-10T13:20:21;14.02;;;8.32;;
55539;SDS011;41384;51.418;7.286;2023-05-10T13:22:47;10.15;;;7.50;;
55539;SDS011;41384;51.418;7.286;2023-05-10T13:25:12;12.52;;;8.40;;
55539;SDS011;41384;51.418;7.286;2023-05-10T13:27:41;10.32;;;7.50;;
55539;SDS011;41384;51.418;7.286;2023-05-10T13:30:07;12.20;;;7.78;;
55539;SDS011;41384;51.418;7.286;2023-05-10T13:32:33;12.43;;;7.80;;
55539;SDS011;41384;51.418;7.286;2023-05-10T13:34:58;12.63;;;8.15;;
55539;SDS011;41384;51.418;7.286;2023-05-10T13:37:23;10.48;;;8.25;;
55539;SDS011;41384;51.418;7.286;2023-05-10T13:39:48;12.70;;;7.43;;
55539;SDS011;41384;51.418;7.286;2023-05-10T13:42:14;11.80;;;7.28;;
55539;SDS011;41384;51.418;7.286;2023-05-10T13:44:39;9.25;;;7.22;;
55539;SDS011;41384;51.418;7.286;2023-05-10T13:47:05;9.02;;;7.07;;
55539;SDS011;41384;51.418;7.286;2023-05-10T13:49:30;11.30;;;6.05;;
55539;SDS011;41384;51.418;7.286;2023-05-10T13:51:56;9.35;;;5.93;;
55539;SDS011;41384;51.418;7.286;2023-05-10T13:54:21;7.72;;;6.13;;
55539;SDS011;41384;51.418;7.286;2023-05-10T13:56:47;9.07;;;6.03;;
55539;SDS011;41384;51.418;7.286;2023-05-10T13:59:13;9.10;;;6.57;;
55539;SDS011;41384;51.418;7.286;2023-05-10T14:01:41;8.25;;;6.20;;
55539;SDS011;41384;51.418;7.286;2023-05-10T14:04:07;7.68;;;5.90;;
55539;SDS011;41384;51.418;7.286;2023-05-10T14:06:35;8.93;;;6.63;;
55539;SDS011;41384;51.418;7.286;2023-05-10T14:09:01;7.93;;;5.55;;
55539;SDS011;41384;51.418;7.286;2023-05-10T14:11:27;7.55;;;5.65;;
55539;SDS011;41384;51.418;7.286;2023-05-10T14:13:52;8.40;;;5.32;;
55539;SDS011;41384;51.418;7.286;2023-05-10T14:16:18;6.93;;;4.65;;
55539;SDS011;41384;51.418;7.286;2023-05-10T14:18:44;7.57;;;4.50;;
55539;SDS011;41384;51.418;7.286;2023-05-10T14:21:09;6.85;;;4.43;;
55539;SDS011;41384;51.418;7.286;2023-05-10T14:23:34;6.45;;;3.78;;
55539;SDS011;41384;51.418;7.286;2023-05-10T14:26:00;4.93;;;3.55;;
55539;SDS011;41384;51.418;7.286;2023-05-10T14:28:25;6.60;;;3.65;;
55539;SDS011;41384;51.418;7.286;2023-05-10T14:30:50;5.15;;;3.40;;
55539;SDS011;41384;51.418;7.286;2023-05-10T14:33:16;4.32;;;2.53;;
55539;SDS011;41384;51.418;7.286;2023-05-10T14:35:41;3.38;;;2.42;;
55539;SDS011;41384;51.418;7.286;2023-05-10T14:38:07;3.30;;;2.33;;
55539;SDS011;41384;51.418;7.286;2023-05-10T14:40:32;5.07;;;3.03;;
55539;SDS011;41384;51.418;7.286;2023-05-10T14:42:58;4.32;;;2.83;;
55539;SDS011;41384;51.418;7.286;2023-05-10T14:45:24;3.60;;;2.75;;
55539;SDS011;41384;51.418;7.286;2023-05-10T14:47:49;4.88;;;3.20;;
55539;SDS011;41384;51.418;7.286;2023-05-10T14:50:15;4.40;;;2.92;;
55539;SDS011;41384;51.418;7.286;2023-05-10T14:52:41;4.88;;;3.50;;
55539;SDS011;41384;51.418;7.286;2023-05-10T14:55:06;4.40;;;3.00;;
55539;SDS011;41384;51.418;7.286;2023-05-10T14:57:32;4.32;;;3.25;;
55539;SDS011;41384;51.418;7.286;2023-05-10T14:59:58;7.10;;;4.20;;
55539;SDS011;41384;51.418;7.286;2023-05-10T15:02:23;4.07;;;3.20;;
55539;SDS011;41384;51.418;7.286;2023-05-10T15:04:48;5.88;;;3.60;;
55539;SDS011;41384;51.418;7.286;2023-05-10T15:07:13;7.25;;;4.20;;
55539;SDS011;41384;51.418;7.286;2023-05-10T15:09:41;5.20;;;4.15;;
55539;SDS011;41384;51.418;7.286;2023-05-10T15:12:06;5.82;;;4.05;;
55539;SDS011;41384;51.418;7.286;2023-05-10T15:14:31;5.43;;;4.40;;
55539;SDS011;41384;51.418;7.286;2023-05-10T15:16:57;7.65;;;4.25;;
55539;SDS011;41384;51.418;7.286;2023-05-10T15:19:23;7.20;;;4.28;;